createdAt,value
2023-04-20T00:01:09.979Z,2.70
2023-04-20T00:03:39.984Z,2.67
2023-04-20T00:06:10.253Z,2.80
2023-04-20T00:08:40.299Z,2.43
2023-04-20T00:11:10.234Z,3.00
2023-04-20T00:13:40.194Z,3.10
2023-04-20T00:16:12.776Z,3.53
2023-04-20T00:18:43.111Z,2.63
2023-04-20T00:21:13.947Z,2.50
2023-04-20T00:23:44.409Z,2.90
2023-04-20T00:26:14.394Z,2.60
2023-04-20T00:28:44.586Z,2.90
2023-04-20T00:31:17.132Z,2.80
2023-04-20T00:33:47.101Z,2.70
2023-04-20T00:36:17.073Z,2.70
2023-04-20T00:38:46.915Z,2.83
2023-04-20T00:41:16.940Z,2.40
2023-04-20T00:43:54.345Z,2.70
2023-04-20T00:46:27.404Z,2.23
2023-04-20T00:48:58.505Z,2.40
2023-04-20T00:51:28.702Z,2.20
2023-04-20T00:53:59.312Z,2.50
2023-04-20T00:56:29.475Z,2.53
2023-04-20T00:58:59.470Z,2.20
2023-04-20T01:01:32.246Z,2.53
2023-04-20T01:04:02.385Z,2.40
2023-04-20T01:06:32.375Z,2.23
2023-04-20T01:09:02.467Z,2.50
2023-04-20T01:11:32.345Z,2.60
2023-04-20T01:14:02.328Z,2.47
2023-04-20T01:16:37.021Z,1.97
2023-04-20T01:19:07.158Z,2.27
2023-04-20T01:21:37.193Z,2.27
2023-04-20T01:24:10.619Z,2.47
2023-04-20T01:26:40.781Z,2.10
2023-04-20T01:29:10.690Z,2.40
2023-04-20T01:31:40.815Z,2.30
2023-04-20T01:34:10.918Z,2.43
2023-04-20T01:36:41.016Z,2.40
2023-04-20T01:39:13.945Z,2.23
2023-04-20T01:41:44.289Z,2.53
2023-04-20T01:44:14.298Z,2.40
2023-04-20T01:46:44.354Z,2.57
2023-04-20T01:49:14.223Z,2.03
2023-04-20T01:51:44.103Z,2.17
2023-04-20T01:54:16.825Z,2.00
2023-04-20T01:56:46.932Z,2.23
2023-04-20T01:59:16.990Z,2.07
2023-04-20T02:01:47.429Z,2.17
2023-04-20T02:04:17.676Z,2.03
2023-04-20T02:06:47.740Z,2.03
2023-04-20T02:09:20.353Z,2.03
2023-04-20T02:11:50.191Z,2.00
2023-04-20T02:14:20.185Z,2.33
2023-04-20T02:16:50.150Z,2.43
2023-04-20T02:19:20.132Z,2.20
2023-04-20T02:21:49.961Z,2.10
2023-04-20T02:24:22.519Z,1.87
2023-04-20T02:26:52.666Z,2.23
2023-04-20T02:29:22.529Z,2.43
2023-04-20T02:31:52.469Z,2.30
2023-04-20T02:34:22.692Z,2.33
2023-04-20T02:36:52.577Z,2.60
2023-04-20T02:39:25.150Z,2.10
2023-04-20T02:41:55.115Z,2.47
2023-04-20T02:44:25.356Z,2.30
2023-04-20T02:46:55.367Z,2.60
2023-04-20T02:49:25.411Z,2.47
2023-04-20T02:51:55.278Z,1.93
2023-04-20T02:54:27.884Z,2.07
2023-04-20T02:56:58.969Z,2.53
2023-04-20T02:59:29.150Z,1.93
2023-04-20T03:01:59.157Z,2.57
2023-04-20T03:04:29.217Z,2.03
2023-04-20T03:06:59.537Z,2.00
2023-04-20T03:09:32.144Z,2.27
2023-04-20T03:12:02.433Z,2.57
2023-04-20T03:14:32.382Z,2.10
2023-04-20T03:17:02.284Z,2.20
2023-04-20T03:19:32.345Z,1.93
2023-04-20T03:22:02.265Z,2.50
2023-04-20T03:24:34.763Z,2.40
2023-04-20T03:27:04.688Z,2.57
2023-04-20T03:29:34.547Z,2.40
2023-04-20T03:32:07.463Z,2.37
2023-04-20T03:34:37.453Z,2.37
2023-04-20T03:37:07.454Z,2.63
2023-04-20T03:39:40.393Z,2.50
2023-04-20T03:42:10.209Z,2.63
2023-04-20T03:44:40.128Z,2.50
2023-04-20T03:47:10.478Z,2.10
2023-04-20T03:49:40.361Z,2.77
2023-04-20T03:52:10.454Z,2.10
2023-04-20T03:54:43.081Z,2.50
2023-04-20T03:57:13.908Z,2.93
2023-04-20T03:59:43.770Z,2.43
2023-04-20T04:02:14.002Z,2.60
2023-04-20T04:04:45.586Z,2.70
2023-04-20T04:07:15.556Z,2.60
2023-04-20T04:09:48.248Z,2.57
2023-04-20T04:12:18.164Z,2.20
2023-04-20T04:14:48.096Z,2.57
2023-04-20T04:17:18.143Z,2.33
2023-04-20T04:19:48.615Z,2.37
2023-04-20T04:22:18.556Z,2.60
2023-04-20T04:24:51.142Z,2.90
2023-04-20T04:27:22.655Z,2.77
2023-04-20T04:29:53.280Z,2.63
2023-04-20T04:32:24.490Z,2.50
2023-04-20T04:34:55.058Z,3.03
2023-04-20T04:37:25.075Z,2.80
2023-04-20T04:39:58.338Z,2.80
2023-04-20T04:42:29.420Z,2.80
2023-04-20T04:45:02.171Z,2.80
2023-04-20T04:47:32.615Z,2.73
2023-04-20T04:50:02.456Z,3.63
2023-04-20T04:52:32.519Z,3.20
2023-04-20T04:55:08.508Z,3.30
2023-04-20T04:57:39.642Z,2.93
2023-04-20T05:00:12.893Z,2.80
2023-04-20T05:02:44.290Z,3.20
2023-04-20T05:05:15.149Z,2.90
2023-04-20T05:07:45.246Z,3.50
2023-04-20T05:10:17.850Z,3.60
2023-04-20T05:12:48.857Z,3.20
2023-04-20T05:15:18.957Z,3.57
2023-04-20T05:17:50.025Z,3.27
2023-04-20T05:20:20.950Z,3.20
2023-04-20T05:22:50.914Z,3.70
2023-04-20T05:25:23.607Z,3.60
2023-04-20T05:27:53.664Z,3.33
2023-04-20T05:30:23.745Z,3.20
2023-04-20T05:32:54.051Z,3.57
2023-04-20T05:35:24.286Z,3.53
2023-04-20T05:37:54.138Z,3.80
2023-04-20T05:40:27.190Z,3.30
2023-04-20T05:42:57.451Z,3.17
2023-04-20T05:45:27.698Z,3.23
2023-04-20T05:47:57.909Z,3.60
2023-04-20T05:50:28.810Z,3.37
2023-04-20T05:52:58.925Z,4.00
2023-04-20T05:55:32.048Z,4.23
2023-04-20T05:58:01.980Z,4.20
2023-04-20T06:00:32.157Z,3.60
2023-04-20T06:03:02.307Z,3.67
2023-04-20T06:05:32.510Z,4.10
2023-04-20T06:08:02.721Z,3.90
2023-04-20T06:10:35.549Z,3.77
2023-04-20T06:13:05.715Z,3.60
2023-04-20T06:15:35.813Z,3.63
2023-04-20T06:18:05.975Z,3.60
2023-04-20T06:20:36.023Z,3.23
2023-04-20T06:23:06.290Z,3.70
2023-04-20T06:25:38.965Z,3.27
2023-04-20T06:28:09.287Z,3.83
2023-04-20T06:30:39.242Z,3.77
2023-04-20T06:33:11.872Z,3.73
2023-04-20T06:35:43.065Z,3.83
2023-04-20T06:38:14.960Z,4.07
2023-04-20T06:40:47.591Z,3.17
2023-04-20T06:43:17.690Z,3.63
2023-04-20T06:45:48.046Z,3.70
2023-04-20T06:48:31.525Z,3.87
2023-04-20T06:51:02.825Z,3.47
2023-04-20T06:53:32.839Z,3.83
2023-04-20T06:56:05.530Z,3.80
2023-04-20T06:58:35.457Z,3.77
2023-04-20T07:01:05.714Z,3.80
2023-04-20T07:03:38.346Z,3.93
2023-04-20T07:06:11.481Z,4.40
2023-04-20T07:08:42.616Z,4.03
2023-04-20T07:11:15.048Z,3.90
2023-04-20T07:13:45.010Z,3.90
2023-04-20T07:16:15.018Z,3.10
2023-04-20T07:18:45.141Z,4.33
2023-04-20T07:21:15.484Z,4.10
2023-04-20T07:23:45.562Z,4.10
2023-04-20T07:26:18.417Z,4.07
2023-04-20T07:28:48.327Z,4.00
2023-04-20T07:31:18.445Z,4.03
2023-04-20T07:33:48.381Z,4.30
2023-04-20T07:36:18.361Z,4.53
2023-04-20T07:38:48.232Z,4.40
2023-04-20T07:41:23.297Z,4.53
2023-04-20T07:43:53.483Z,4.83
2023-04-20T07:46:28.697Z,4.07
2023-04-20T07:48:58.545Z,4.93
2023-04-20T07:51:30.568Z,4.47
2023-04-20T07:54:00.618Z,4.67
2023-04-20T07:56:33.317Z,5.37
2023-04-20T07:59:03.397Z,4.63
2023-04-20T08:01:33.322Z,4.90
2023-04-20T08:04:03.802Z,4.63
2023-04-20T08:06:33.818Z,5.37
2023-04-20T08:09:03.872Z,4.13
2023-04-20T08:11:36.383Z,4.20
2023-04-20T08:14:06.259Z,4.13
2023-04-20T08:16:36.464Z,4.03
2023-04-20T08:19:10.384Z,4.47
2023-04-20T08:21:46.005Z,4.37
2023-04-20T08:24:16.559Z,4.13
2023-04-20T08:26:49.608Z,4.23
2023-04-20T08:29:20.206Z,4.03
2023-04-20T08:31:51.801Z,4.70
2023-04-20T08:34:22.387Z,4.13
2023-04-20T08:36:52.399Z,3.53
2023-04-20T08:39:24.508Z,3.73
2023-04-20T08:41:58.492Z,4.27
2023-04-20T08:44:28.387Z,3.97
2023-04-20T08:46:58.374Z,4.50
2023-04-20T08:49:32.029Z,4.00
2023-04-20T08:52:01.940Z,4.63
2023-04-20T08:54:32.583Z,4.33
2023-04-20T08:57:06.506Z,4.13
2023-04-20T08:59:37.147Z,4.50
2023-04-20T09:02:14.397Z,4.70
2023-04-20T09:04:44.823Z,4.83
2023-04-20T09:07:21.228Z,4.40
2023-04-20T09:09:58.418Z,4.43
2023-04-20T09:12:31.770Z,4.70
2023-04-20T09:15:01.997Z,4.70
2023-04-20T09:17:36.409Z,4.90
2023-04-20T09:20:08.791Z,4.70
2023-04-20T09:22:40.679Z,4.27
2023-04-20T09:25:17.903Z,4.73
2023-04-20T09:28:02.272Z,4.63
2023-04-20T09:30:41.070Z,4.60
2023-04-20T09:33:12.799Z,5.40
2023-04-20T09:35:43.139Z,4.50
2023-04-20T09:38:14.326Z,5.83
2023-04-20T09:40:50.201Z,5.50
2023-04-20T09:43:27.671Z,5.93
2023-04-20T09:45:58.841Z,5.83
2023-04-20T09:48:30.840Z,6.13
2023-04-20T09:51:05.656Z,6.47
2023-04-20T09:53:37.239Z,5.70
2023-04-20T09:56:09.889Z,6.50
2023-04-20T09:58:43.657Z,6.17
2023-04-20T10:01:14.138Z,7.13
2023-04-20T10:03:45.271Z,7.00
2023-04-20T10:06:22.719Z,7.10
2023-04-20T10:08:53.945Z,7.50
2023-04-20T10:11:44.651Z,6.67
2023-04-20T10:14:26.375Z,7.23
2023-04-20T10:17:03.891Z,6.60
2023-04-20T10:19:44.114Z,6.20
2023-04-20T10:22:16.293Z,5.83
2023-04-20T10:24:47.857Z,5.90
2023-04-20T10:27:21.355Z,6.07
2023-04-20T10:29:53.861Z,5.93
2023-04-20T10:32:28.357Z,5.00
2023-04-20T10:35:06.942Z,4.90
2023-04-20T10:37:37.628Z,5.13
2023-04-20T10:40:08.562Z,4.40
2023-04-20T10:42:45.381Z,4.30
2023-04-20T10:45:18.238Z,4.13
2023-04-20T10:47:48.211Z,4.27
2023-04-20T10:50:20.079Z,3.80
2023-04-20T10:52:50.143Z,4.13
2023-04-20T10:55:24.223Z,3.80
2023-04-20T10:57:54.582Z,3.90
2023-04-20T11:00:31.376Z,3.93
2023-04-20T11:03:01.416Z,3.53
2023-04-20T11:05:31.271Z,3.97
2023-04-20T11:08:05.125Z,4.00
2023-04-20T11:10:42.546Z,4.00
2023-04-20T11:13:23.714Z,4.70
2023-04-20T11:15:56.512Z,4.10
2023-04-20T11:18:26.521Z,4.20
2023-04-20T11:20:57.744Z,3.60
2023-04-20T11:23:40.245Z,3.87
2023-04-20T11:26:10.171Z,3.60
2023-04-20T11:28:40.465Z,3.70
2023-04-20T11:31:22.050Z,3.90
2023-04-20T11:33:52.112Z,3.50
2023-04-20T11:36:22.879Z,3.57
2023-04-20T11:38:53.358Z,4.27
2023-04-20T11:41:23.458Z,3.73
2023-04-20T11:43:53.387Z,4.13
2023-04-20T11:46:26.206Z,3.47
2023-04-20T11:48:57.729Z,3.73
2023-04-20T11:51:27.777Z,3.37
2023-04-20T11:53:57.664Z,3.83
2023-04-20T11:56:28.911Z,3.53
2023-04-20T11:58:58.850Z,3.40
2023-04-20T12:01:31.346Z,3.00
2023-04-20T12:04:02.313Z,3.20
2023-04-20T12:06:35.911Z,3.17
2023-04-20T12:09:06.470Z,3.30
2023-04-20T12:11:36.766Z,2.87
2023-04-20T12:14:06.786Z,2.70
2023-04-20T12:16:39.329Z,3.07
2023-04-20T12:19:09.285Z,3.03
2023-04-20T12:21:39.663Z,3.00
2023-04-20T12:24:09.861Z,2.90
2023-04-20T12:26:42.349Z,2.90
2023-04-20T12:29:12.366Z,2.90
2023-04-20T12:31:45.767Z,2.50
2023-04-20T12:34:15.973Z,3.13
2023-04-20T12:36:45.925Z,3.00
2023-04-20T12:39:16.345Z,3.10
2023-04-20T12:41:46.589Z,2.80
2023-04-20T12:44:18.014Z,3.27
2023-04-20T12:46:50.726Z,3.50
2023-04-20T12:49:21.285Z,3.63
2023-04-20T12:51:51.149Z,3.70
2023-04-20T12:54:21.262Z,3.30
2023-04-20T12:56:51.410Z,3.60
2023-04-20T12:59:21.258Z,3.60
2023-04-20T13:01:53.825Z,3.23
2023-04-20T13:04:24.216Z,3.60
2023-04-20T13:06:54.654Z,3.63
2023-04-20T13:09:27.233Z,4.10
2023-04-20T13:11:58.054Z,3.63
2023-04-20T13:14:28.235Z,3.50
2023-04-20T13:17:02.164Z,4.33
2023-04-20T13:19:32.346Z,4.47
2023-04-20T13:22:04.042Z,3.63
2023-04-20T13:24:33.876Z,3.93
2023-04-20T13:27:03.870Z,4.10
2023-04-20T13:29:33.919Z,4.30
2023-04-20T13:32:06.503Z,4.57
2023-04-20T13:34:36.521Z,4.20
2023-04-20T13:37:06.990Z,3.87
2023-04-20T13:39:36.841Z,4.33
2023-04-20T13:42:06.883Z,4.33
2023-04-20T13:44:37.449Z,4.73
2023-04-20T13:47:10.217Z,4.67
2023-04-20T13:49:40.228Z,3.90
2023-04-20T13:52:12.378Z,4.60
2023-04-20T13:54:42.381Z,4.33
2023-04-20T13:57:12.338Z,4.53
2023-04-20T13:59:42.168Z,4.30
2023-04-20T14:02:14.720Z,4.97
2023-04-20T14:04:47.692Z,4.80
2023-04-20T14:07:17.627Z,4.90
2023-04-20T14:09:47.560Z,4.30
2023-04-20T14:12:17.447Z,4.50
2023-04-20T14:14:47.427Z,4.37
2023-04-20T14:17:20.010Z,4.80
2023-04-20T14:19:49.914Z,5.40
2023-04-20T14:22:20.018Z,5.17
2023-04-20T14:24:50.350Z,4.30
2023-04-20T14:27:20.329Z,4.83
2023-04-20T14:29:50.175Z,5.70
2023-04-20T14:32:22.755Z,5.67
2023-04-20T14:34:52.737Z,6.00
2023-04-20T14:37:25.106Z,5.70
2023-04-20T14:39:54.999Z,5.97
2023-04-20T14:42:25.627Z,5.80
2023-04-20T14:44:56.083Z,6.37
2023-04-20T14:47:28.617Z,6.13
2023-04-20T14:49:58.572Z,6.57
2023-04-20T14:52:28.530Z,6.60
2023-04-20T14:54:58.379Z,6.30
2023-04-20T14:57:28.366Z,5.40
2023-04-20T14:59:58.531Z,5.97
2023-04-20T15:02:31.267Z,5.03
2023-04-20T15:05:02.292Z,5.83
2023-04-20T15:07:32.480Z,6.80
2023-04-20T15:10:02.409Z,5.20
2023-04-20T15:12:32.337Z,5.87
2023-04-20T15:15:02.228Z,5.67
2023-04-20T15:17:34.727Z,5.83
2023-04-20T15:20:04.770Z,6.00
2023-04-20T15:22:34.794Z,6.50
2023-04-20T15:25:04.693Z,6.63
2023-04-20T15:27:35.087Z,6.13
2023-04-20T15:30:05.368Z,5.60
2023-04-20T15:32:38.138Z,6.53
2023-04-20T15:35:09.006Z,5.27
2023-04-20T15:37:38.999Z,5.60
2023-04-20T15:40:10.815Z,5.23
2023-04-20T15:42:40.672Z,5.00
2023-04-20T15:45:11.969Z,4.60
2023-04-20T15:47:44.587Z,4.87
2023-04-20T15:50:14.851Z,4.33
2023-04-20T15:52:45.908Z,4.73
2023-04-20T15:55:16.006Z,4.13
2023-04-20T15:57:45.921Z,5.17
2023-04-20T16:00:16.916Z,5.00
2023-04-20T16:02:50.020Z,5.17
2023-04-20T16:05:20.166Z,4.90
2023-04-20T16:07:50.056Z,4.60
2023-04-20T16:10:20.193Z,4.03
2023-04-20T16:12:50.126Z,4.13
2023-04-20T16:15:20.372Z,4.30
2023-04-20T16:17:53.097Z,4.07
2023-04-20T16:20:23.151Z,4.33
2023-04-20T16:22:53.043Z,3.87
2023-04-20T16:25:25.910Z,4.17
2023-04-20T16:27:56.016Z,4.23
2023-04-20T16:30:26.276Z,4.40
2023-04-20T16:33:00.292Z,5.20
2023-04-20T16:35:30.309Z,4.57
2023-04-20T16:38:00.408Z,4.40
2023-04-20T16:40:31.193Z,4.03
2023-04-20T16:43:02.045Z,4.07
2023-04-20T16:45:32.315Z,4.73
2023-04-20T16:48:05.070Z,4.47
2023-04-20T16:50:40.365Z,4.60
2023-04-20T16:53:12.159Z,4.43
2023-04-20T16:55:42.040Z,4.40
2023-04-20T16:58:11.835Z,4.70
2023-04-20T17:00:41.857Z,4.50
2023-04-20T17:03:15.437Z,4.90
2023-04-20T17:05:46.824Z,5.10
2023-04-20T17:08:16.782Z,4.80
2023-04-20T17:10:46.772Z,4.30
2023-04-20T17:13:18.678Z,3.70
2023-04-20T17:15:48.859Z,4.27
2023-04-20T17:18:21.661Z,4.10
2023-04-20T17:20:52.359Z,3.77
2023-04-20T17:23:22.527Z,4.07
2023-04-20T17:25:52.436Z,3.70
2023-04-20T17:28:22.456Z,4.00
2023-04-20T17:30:52.330Z,3.87
2023-04-20T17:33:24.918Z,3.63
2023-04-20T17:35:57.109Z,4.00
2023-04-20T17:38:27.164Z,4.23
2023-04-20T17:40:57.193Z,4.43
2023-04-20T17:43:27.118Z,4.30
2023-04-20T17:45:58.806Z,4.10
2023-04-20T17:48:31.552Z,4.73
2023-04-20T17:51:01.597Z,3.90
2023-04-20T17:53:33.873Z,3.47
2023-04-20T17:56:04.386Z,3.23
2023-04-20T17:58:34.318Z,2.93
2023-04-20T18:01:04.502Z,4.37
2023-04-20T18:03:37.355Z,4.40
2023-04-20T18:06:07.945Z,3.90
2023-04-20T18:08:38.314Z,4.13
2023-04-20T18:11:08.928Z,4.57
2023-04-20T18:13:38.923Z,3.57
2023-04-20T18:16:09.522Z,4.07
2023-04-20T18:18:42.195Z,4.07
2023-04-20T18:21:14.390Z,3.87
2023-04-20T18:23:44.343Z,4.17
2023-04-20T18:26:17.735Z,4.87
2023-04-20T18:28:48.079Z,4.00
2023-04-20T18:31:18.228Z,4.50
2023-04-20T18:33:50.775Z,4.07
2023-04-20T18:36:20.692Z,4.20
2023-04-20T18:38:51.583Z,4.43
2023-04-20T18:41:22.826Z,4.80
2023-04-20T18:43:55.833Z,4.87
2023-04-20T18:46:26.069Z,5.00
2023-04-20T18:48:58.727Z,4.83
2023-04-20T18:51:32.334Z,4.73
2023-04-20T18:54:02.273Z,5.30
2023-04-20T18:56:32.521Z,5.47
2023-04-20T18:59:03.482Z,4.97
2023-04-20T19:01:35.468Z,4.57
2023-04-20T19:04:08.436Z,5.47
2023-04-20T19:06:38.693Z,6.03
2023-04-20T19:09:08.585Z,6.63
2023-04-20T19:11:38.558Z,5.83
2023-04-20T19:14:08.622Z,6.07
2023-04-20T19:16:38.590Z,6.17
2023-04-20T19:19:11.982Z,6.63
2023-04-20T19:21:41.974Z,7.10
2023-04-20T19:24:12.266Z,6.53
2023-04-20T19:26:42.399Z,6.63
2023-04-20T19:29:12.665Z,6.80
2023-04-20T19:31:42.711Z,6.40
2023-04-20T19:34:15.641Z,6.53
2023-04-20T19:36:45.880Z,7.23
2023-04-20T19:39:16.046Z,6.60
2023-04-20T19:41:46.071Z,6.87
2023-04-20T19:44:16.333Z,6.77
2023-04-20T19:46:46.520Z,5.73
2023-04-20T19:49:19.724Z,6.93
2023-04-20T19:51:49.697Z,6.83
2023-04-20T19:54:19.709Z,6.60
2023-04-20T19:56:49.926Z,6.83
2023-04-20T19:59:20.231Z,7.50
2023-04-20T20:01:50.894Z,6.90
2023-04-20T20:04:23.786Z,7.73
2023-04-20T20:06:53.770Z,7.27
2023-04-20T20:09:24.345Z,7.23
2023-04-20T20:11:54.473Z,8.20
2023-04-20T20:14:24.782Z,8.57
2023-04-20T20:16:56.786Z,8.13
2023-04-20T20:19:30.879Z,8.57
2023-04-20T20:22:00.705Z,7.93
2023-04-20T20:24:30.907Z,8.53
2023-04-20T20:27:00.816Z,8.20
2023-04-20T20:29:30.754Z,9.17
2023-04-20T20:32:00.732Z,9.00
2023-04-20T20:34:33.327Z,8.93
2023-04-20T20:37:04.620Z,9.40
2023-04-20T20:39:35.001Z,8.67
2023-04-20T20:42:06.420Z,9.37
2023-04-20T20:44:39.208Z,10.20
2023-04-20T20:47:09.379Z,10.20
2023-04-20T20:49:41.928Z,10.20
2023-04-20T20:52:11.801Z,11.30
2023-04-20T20:54:41.709Z,11.10
2023-04-20T20:57:12.058Z,11.17
2023-04-20T20:59:42.544Z,11.30
2023-04-20T21:02:12.724Z,12.17
2023-04-20T21:04:45.331Z,12.23
2023-04-20T21:07:15.577Z,11.87
2023-04-20T21:09:46.477Z,11.90
2023-04-20T21:12:16.508Z,12.10
2023-04-20T21:14:46.467Z,12.37
2023-04-20T21:17:16.363Z,12.53
2023-04-20T21:19:49.135Z,12.00
2023-04-20T21:22:20.352Z,12.57
2023-04-20T21:24:50.315Z,12.30
2023-04-20T21:27:20.533Z,12.67
2023-04-20T21:29:52.910Z,12.37
2023-04-20T21:32:24.121Z,12.57
2023-04-20T21:34:56.718Z,12.50
2023-04-20T21:37:27.565Z,12.23
2023-04-20T21:39:57.433Z,12.43
2023-04-20T21:42:29.986Z,13.50
2023-04-20T21:44:59.941Z,12.90
2023-04-20T21:47:29.837Z,13.60
2023-04-20T21:50:02.889Z,13.57
2023-04-20T21:52:32.747Z,13.83
2023-04-20T21:55:02.658Z,14.77
2023-04-20T21:57:32.475Z,14.43
2023-04-20T22:00:02.361Z,14.63
2023-04-20T22:02:32.297Z,13.97
2023-04-20T22:05:05.613Z,14.47
2023-04-20T22:07:35.532Z,13.80
2023-04-20T22:10:05.459Z,13.53
2023-04-20T22:12:40.515Z,14.23
2023-04-20T22:15:13.657Z,15.63
2023-04-20T22:17:45.582Z,14.77
2023-04-20T22:20:19.841Z,15.23
2023-04-20T22:22:49.855Z,14.80
2023-04-20T22:25:19.719Z,14.03
2023-04-20T22:27:49.614Z,15.63
2023-04-20T22:30:19.687Z,15.10
2023-04-20T22:32:49.696Z,15.70
2023-04-20T22:35:22.384Z,15.03
2023-04-20T22:37:52.202Z,15.23
2023-04-20T22:40:22.045Z,15.50
2023-04-20T22:42:52.156Z,16.00
2023-04-20T22:45:22.352Z,14.80
2023-04-20T22:47:52.197Z,16.17
2023-04-20T22:50:25.939Z,15.40
2023-04-20T22:52:55.879Z,15.70
2023-04-20T22:55:26.050Z,14.47
2023-04-20T22:57:55.917Z,14.93
2023-04-20T23:00:26.130Z,15.20
2023-04-20T23:02:56.250Z,15.00
2023-04-20T23:05:29.278Z,16.17
2023-04-20T23:08:00.726Z,14.70
2023-04-20T23:10:31.433Z,14.70
2023-04-20T23:13:01.456Z,14.10
2023-04-20T23:15:31.351Z,14.77
2023-04-20T23:18:01.243Z,14.40
2023-04-20T23:20:33.993Z,14.57
2023-04-20T23:23:03.892Z,13.77
2023-04-20T23:25:33.827Z,13.83
2023-04-20T23:28:03.732Z,14.20
2023-04-20T23:30:33.663Z,16.17
2023-04-20T23:33:03.575Z,14.83
2023-04-20T23:35:36.122Z,15.03
2023-04-20T23:38:06.279Z,13.90
2023-04-20T23:40:36.235Z,15.07
2023-04-20T23:43:06.108Z,14.30
2023-04-20T23:45:36.098Z,14.50
2023-04-20T23:48:06.138Z,15.00
2023-04-20T23:50:39.759Z,14.47
2023-04-20T23:53:10.394Z,14.33
2023-04-20T23:55:41.620Z,14.67
2023-04-20T23:58:11.436Z,15.07
